createdAt,value
2023-01-11T00:07:24.428Z,0
2023-01-11T00:12:43.979Z,0
2023-01-11T00:23:22.493Z,0
2023-01-11T00:28:41.592Z,0
2023-01-11T00:34:00.531Z,0
2023-01-11T00:39:19.587Z,0
2023-01-11T00:49:58.041Z,0
2023-01-11T00:55:16.927Z,0
2023-01-11T01:05:55.728Z,0
2023-01-11T01:11:15.191Z,0
2023-01-11T01:16:34.717Z,0
2023-01-11T01:21:53.789Z,0
2023-01-11T01:32:31.593Z,0
2023-01-11T01:37:51.004Z,0
2023-01-11T01:48:29.214Z,0
2023-01-11T01:53:49.011Z,0
2023-01-11T01:59:08.203Z,0
2023-01-11T02:04:27.362Z,0
2023-01-11T02:09:47.150Z,0
2023-01-11T02:15:06.837Z,0
2023-01-11T02:20:26.569Z,0
2023-01-11T02:31:05.322Z,0
2023-01-11T02:36:24.628Z,0
2023-01-11T02:41:43.849Z,0
2023-01-11T02:47:02.808Z,0
2023-01-11T02:52:21.639Z,0
2023-01-11T02:57:41.024Z,0
2023-01-11T03:03:00.157Z,0
2023-01-11T03:13:39.072Z,0
2023-01-11T03:18:57.830Z,0
2023-01-11T03:24:16.747Z,0
2023-01-11T03:29:35.559Z,0
2023-01-11T03:34:54.896Z,0
2023-01-11T03:40:14.118Z,0
2023-01-11T03:45:33.393Z,0
2023-01-11T03:56:11.505Z,0
2023-01-11T04:01:31.246Z,0
2023-01-11T04:06:50.462Z,0
2023-01-11T04:12:10.147Z,0
2023-01-11T04:17:29.226Z,0
2023-01-11T04:22:48.664Z,0
2023-01-11T04:28:07.471Z,0
2023-01-11T04:33:26.372Z,0
2023-01-11T04:38:45.523Z,0
2023-01-11T04:44:04.423Z,0
2023-01-11T04:49:23.880Z,0
2023-01-11T04:54:43.356Z,0
2023-01-11T05:00:02.770Z,0
2023-01-11T05:05:21.530Z,0
2023-01-11T05:16:00.064Z,0
2023-01-11T05:21:19.433Z,0
2023-01-11T05:26:38.448Z,0
2023-01-11T05:31:57.855Z,0
2023-01-11T05:37:17.556Z,0
2023-01-11T05:42:37.182Z,0
2023-01-11T05:47:56.212Z,0
2023-01-11T05:53:15.886Z,0
2023-01-11T05:58:35.091Z,0
2023-01-11T06:03:55.222Z,0
2023-01-11T06:14:32.744Z,0
2023-01-11T06:19:51.658Z,0
2023-01-11T06:30:30.586Z,0
2023-01-11T06:35:49.748Z,0
2023-01-11T06:41:08.603Z,0
2023-01-11T06:46:29.133Z,0
2023-01-11T06:51:47.306Z,0
2023-01-11T06:57:06.741Z,0
2023-01-11T07:02:26.238Z,0.0048
2023-01-11T07:13:04.434Z,0.0223
2023-01-11T07:18:24.074Z,0.0203
2023-01-11T07:23:43.533Z,0.0185
2023-01-11T07:29:03.903Z,0.0213
2023-01-11T07:34:23.559Z,0.0332
2023-01-11T07:39:44.114Z,0.0329
2023-01-11T07:45:02.694Z,0.0347
2023-01-11T07:55:41.015Z,0.038
2023-01-11T08:00:59.785Z,0.0487
2023-01-11T08:06:19.028Z,0.0526
2023-01-11T08:11:37.862Z,0.0637
2023-01-11T08:16:57.630Z,0.0602
2023-01-11T08:22:16.486Z,0.0676
2023-01-11T08:27:36.650Z,0.0773
2023-01-11T08:38:14.955Z,0.0823
2023-01-11T08:43:34.499Z,0.0723
2023-01-11T08:48:53.339Z,0.0676
2023-01-11T08:54:12.386Z,0.0643
2023-01-11T08:59:31.610Z,0.0682
2023-01-11T09:04:51.051Z,0.0835
2023-01-11T09:10:10.833Z,0.0937
2023-01-11T09:20:49.325Z,0.1018
2023-01-11T09:26:08.104Z,0.0891
2023-01-11T09:31:27.113Z,0.0857
2023-01-11T09:36:45.961Z,0.0644
2023-01-11T09:42:06.072Z,0.064
2023-01-11T09:47:25.766Z,0.0733
2023-01-11T09:52:44.731Z,0.0785
2023-01-11T10:03:23.879Z,0.0927
2023-01-11T10:19:35.780Z,0.1015
2023-01-11T10:24:42.337Z,0.0972
2023-01-11T10:30:00.140Z,0.0859
2023-01-11T10:35:18.887Z,0.0736
2023-01-11T10:45:57.279Z,0.0923
2023-01-11T10:51:16.704Z,0.0836
2023-01-11T10:56:36.530Z,0.0848
2023-01-11T11:01:55.510Z,0.1087
2023-01-11T11:07:14.681Z,0.1124
2023-01-11T11:12:33.796Z,0.0872
2023-01-11T11:17:53.031Z,0.0983
2023-01-11T11:23:12.272Z,0.0993
2023-01-11T11:28:31.578Z,0.0958
2023-01-11T11:39:10.513Z,0.0839
2023-01-11T11:44:29.931Z,0.0718
2023-01-11T11:55:08.558Z,0.0909
2023-01-11T12:00:27.555Z,0.0863
2023-01-11T12:05:45.951Z,0.118
2023-01-11T12:11:04.638Z,0.1124
2023-01-11T12:21:42.526Z,0.1147
2023-01-11T12:27:01.740Z,0.1026
2023-01-11T12:32:20.759Z,0.0913
2023-01-11T12:37:48.185Z,0.0768
2023-01-11T12:42:59.063Z,0.0639
2023-01-11T12:48:18.010Z,0.051
2023-01-11T12:53:37.056Z,0.1035
2023-01-11T13:04:15.786Z,0.089
2023-01-11T13:09:35.094Z,0.1014
2023-01-11T13:14:54.493Z,0.1131
2023-01-11T13:20:14.010Z,0.0867
2023-01-11T13:25:33.617Z,0.1462
2023-01-11T13:30:53.362Z,0.1363
2023-01-11T13:36:22.197Z,0.1119
2023-01-11T13:41:31.740Z,0.0768
2023-01-11T13:46:51.218Z,0.0736
2023-01-11T13:52:10.707Z,0.0887
2023-01-11T14:02:50.432Z,0.0874
2023-01-11T14:08:09.986Z,0.0837
2023-01-11T14:13:28.576Z,0.0804
2023-01-11T14:18:47.331Z,0.0662
2023-01-11T14:24:06.127Z,0.0594
2023-01-11T14:29:25.085Z,0.0704
2023-01-11T14:34:44.622Z,0.0656
2023-01-11T14:45:22.774Z,0.034
2023-01-11T14:50:41.488Z,0.0384
2023-01-11T14:56:01.263Z,0.0424
2023-01-11T15:01:19.975Z,0.0422
2023-01-11T15:11:58.899Z,0.031
2023-01-11T15:17:18.047Z,0.027
2023-01-11T15:27:56.388Z,0.0307
2023-01-11T15:33:16.085Z,0.0312
2023-01-11T15:39:00.135Z,0.0241
2023-01-11T15:44:19.697Z,0.0155
2023-01-11T15:49:38.197Z,0.0125
2023-01-11T16:00:16.793Z,0
2023-01-11T16:05:36.636Z,0
2023-01-11T16:10:55.580Z,0
2023-01-11T16:16:14.650Z,0
2023-01-11T16:21:33.750Z,0
2023-01-11T16:26:53.759Z,0
2023-01-11T16:32:12.628Z,0
2023-01-11T16:42:50.848Z,0
2023-01-11T16:48:10.047Z,0
2023-01-11T16:53:29.693Z,0
2023-01-11T16:58:49.359Z,0
2023-01-11T17:04:12.742Z,0
2023-01-11T17:09:27.580Z,0
2023-01-11T17:14:46.588Z,0
2023-01-11T17:25:26.134Z,0
2023-01-11T17:30:45.098Z,0
2023-01-11T17:36:03.700Z,0
2023-01-11T17:41:22.551Z,0
2023-01-11T17:46:42.263Z,0
2023-01-11T17:52:01.711Z,0
2023-01-11T17:57:20.610Z,0
2023-01-11T18:02:39.854Z,0
2023-01-11T18:07:59.115Z,0
2023-01-11T18:13:18.361Z,0
2023-01-11T18:18:46.557Z,0
2023-01-11T18:23:56.797Z,0
2023-01-11T18:29:16.069Z,0
2023-01-11T18:34:35.351Z,0
2023-01-11T18:39:55.144Z,0
2023-01-11T18:45:14.185Z,0
2023-01-11T18:50:33.883Z,0
2023-01-11T19:01:11.464Z,0
2023-01-11T19:06:30.566Z,0
2023-01-11T19:11:50.324Z,0
2023-01-11T19:17:09.373Z,0
2023-01-11T19:22:28.428Z,0
2023-01-11T19:27:47.992Z,0
2023-01-11T19:33:06.750Z,0
2023-01-11T19:43:45.679Z,0
2023-01-11T19:49:04.695Z,0
2023-01-11T19:54:24.352Z,0
2023-01-11T19:59:43.875Z,0
2023-01-11T20:05:02.650Z,0
2023-01-11T20:10:22.451Z,0
2023-01-11T20:15:40.967Z,0
2023-01-11T20:21:00.504Z,0
2023-01-11T20:26:20.105Z,0
2023-01-11T20:31:39.559Z,0
2023-01-11T20:42:17.868Z,0
2023-01-11T20:47:36.796Z,0
2023-01-11T20:52:55.586Z,0
2023-01-11T20:58:14.604Z,0
2023-01-11T21:03:33.667Z,0
2023-01-11T21:08:52.798Z,0
2023-01-11T21:14:11.594Z,0
2023-01-11T21:24:50.539Z,0
2023-01-11T21:30:09.757Z,0
2023-01-11T21:35:29.284Z,0
2023-01-11T21:40:48.742Z,0
2023-01-11T21:46:08.386Z,0
2023-01-11T21:51:27.782Z,0
2023-01-11T21:56:47.468Z,0
2023-01-11T22:07:25.705Z,0
2023-01-11T22:12:44.923Z,0
2023-01-11T22:18:04.197Z,0
2023-01-11T22:23:23.587Z,0
2023-01-11T22:28:43.177Z,0
2023-01-11T22:34:02.030Z,0
2023-01-11T22:39:21.306Z,0
2023-01-11T22:44:40.735Z,0
2023-01-11T22:50:00.000Z,0
2023-01-11T22:55:19.011Z,0
2023-01-11T23:05:57.813Z,0
2023-01-11T23:11:17.487Z,0
2023-01-11T23:16:36.976Z,0
2023-01-11T23:21:55.991Z,0
2023-01-11T23:27:14.390Z,0
2023-01-11T23:32:33.706Z,0
2023-01-11T23:37:52.734Z,0
2023-01-11T23:48:30.539Z,0
2023-01-11T23:53:50.566Z,0
2023-01-11T23:59:10.174Z,0
